sensor_id;sensor_type;location;lat;lon;timestamp;temperature;humidity
12386;DHT22;6257;57.634;18.310;2023-06-22T00:01:32;16.90;99.90
12386;DHT22;6257;57.634;18.310;2023-06-22T00:04:00;17.00;99.90
12386;DHT22;6257;57.634;18.310;2023-06-22T00:06:27;17.00;99.90
12386;DHT22;6257;57.634;18.310;2023-06-22T00:08:54;17.10;99.90
12386;DHT22;6257;57.634;18.310;2023-06-22T00:13:50;17.10;99.90
12386;DHT22;6257;57.634;18.310;2023-06-22T00:16:17;17.10;99.90
12386;DHT22;6257;57.634;18.310;2023-06-22T00:18:44;17.10;99.90
12386;DHT22;6257;57.634;18.310;2023-06-22T00:21:12;17.10;99.90
12386;DHT22;6257;57.634;18.310;2023-06-22T00:23:39;17.10;99.90
12386;DHT22;6257;57.634;18.310;2023-06-22T00:26:07;17.10;99.90
12386;DHT22;6257;57.634;18.310;2023-06-22T00:28:35;17.10;99.90
12386;DHT22;6257;57.634;18.310;2023-06-22T00:31:02;17.20;99.90
12386;DHT22;6257;57.634;18.310;2023-06-22T00:33:29;17.20;99.90
12386;DHT22;6257;57.634;18.310;2023-06-22T00:35:57;17.20;99.90
12386;DHT22;6257;57.634;18.310;2023-06-22T00:38:24;17.20;99.90
12386;DHT22;6257;57.634;18.310;2023-06-22T00:40:51;17.20;99.90
12386;DHT22;6257;57.634;18.310;2023-06-22T00:43:18;17.20;99.90
12386;DHT22;6257;57.634;18.310;2023-06-22T00:48:14;17.20;99.90
12386;DHT22;6257;57.634;18.310;2023-06-22T00:50:41;17.20;99.90
12386;DHT22;6257;57.634;18.310;2023-06-22T00:53:09;17.20;99.90
12386;DHT22;6257;57.634;18.310;2023-06-22T00:55:38;17.20;99.90
12386;DHT22;6257;57.634;18.310;2023-06-22T00:58:09;17.20;99.90
12386;DHT22;6257;57.634;18.310;2023-06-22T01:00:37;17.20;99.90
12386;DHT22;6257;57.634;18.310;2023-06-22T01:05:35;17.10;99.90
12386;DHT22;6257;57.634;18.310;2023-06-22T01:08:08;17.20;99.90
12386;DHT22;6257;57.634;18.310;2023-06-22T01:10:41;17.20;99.90
12386;DHT22;6257;57.634;18.310;2023-06-22T01:13:15;17.20;99.90
12386;DHT22;6257;57.634;18.310;2023-06-22T01:15:46;17.10;99.90
12386;DHT22;6257;57.634;18.310;2023-06-22T01:18:18;17.10;99.90
12386;DHT22;6257;57.634;18.310;2023-06-22T01:20:46;17.10;99.90
12386;DHT22;6257;57.634;18.310;2023-06-22T01:23:24;17.20;99.90
12386;DHT22;6257;57.634;18.310;2023-06-22T01:25:59;17.20;99.90
12386;DHT22;6257;57.634;18.310;2023-06-22T01:28:43;17.30;99.90
12386;DHT22;6257;57.634;18.310;2023-06-22T01:31:13;17.30;99.90
12386;DHT22;6257;57.634;18.310;2023-06-22T01:33:43;17.30;99.90
12386;DHT22;6257;57.634;18.310;2023-06-22T01:36:10;17.30;99.90
12386;DHT22;6257;57.634;18.310;2023-06-22T01:38:38;17.40;99.90
12386;DHT22;6257;57.634;18.310;2023-06-22T01:41:06;17.40;99.90
12386;DHT22;6257;57.634;18.310;2023-06-22T01:43:33;17.40;99.90
12386;DHT22;6257;57.634;18.310;2023-06-22T01:46:03;17.40;99.90
12386;DHT22;6257;57.634;18.310;2023-06-22T01:48:31;17.40;99.90
12386;DHT22;6257;57.634;18.310;2023-06-22T01:50:58;17.40;99.90
12386;DHT22;6257;57.634;18.310;2023-06-22T01:53:26;17.50;99.90
12386;DHT22;6257;57.634;18.310;2023-06-22T01:55:53;17.50;99.90
12386;DHT22;6257;57.634;18.310;2023-06-22T01:58:21;17.50;99.90
12386;DHT22;6257;57.634;18.310;2023-06-22T02:00:54;17.50;99.90
12386;DHT22;6257;57.634;18.310;2023-06-22T02:03:27;17.60;99.90
12386;DHT22;6257;57.634;18.310;2023-06-22T02:06:01;17.60;99.90
12386;DHT22;6257;57.634;18.310;2023-06-22T02:08:32;17.60;99.90
12386;DHT22;6257;57.634;18.310;2023-06-22T02:11:03;17.60;99.90
12386;DHT22;6257;57.634;18.310;2023-06-22T02:13:30;17.60;99.90
12386;DHT22;6257;57.634;18.310;2023-06-22T02:15:58;17.60;99.90
12386;DHT22;6257;57.634;18.310;2023-06-22T02:18:27;17.60;99.90
12386;DHT22;6257;57.634;18.310;2023-06-22T02:20:54;17.70;99.90
12386;DHT22;6257;57.634;18.310;2023-06-22T02:23:21;17.70;99.90
12386;DHT22;6257;57.634;18.310;2023-06-22T02:25:48;17.60;99.90
12386;DHT22;6257;57.634;18.310;2023-06-22T02:28:15;17.70;99.90
12386;DHT22;6257;57.634;18.310;2023-06-22T02:30:42;17.70;99.90
12386;DHT22;6257;57.634;18.310;2023-06-22T02:33:10;17.80;99.90
12386;DHT22;6257;57.634;18.310;2023-06-22T02:35:38;17.70;99.90
12386;DHT22;6257;57.634;18.310;2023-06-22T02:38:11;17.70;99.90
12386;DHT22;6257;57.634;18.310;2023-06-22T02:40:38;17.70;99.90
12386;DHT22;6257;57.634;18.310;2023-06-22T02:43:05;17.70;99.90
12386;DHT22;6257;57.634;18.310;2023-06-22T02:45:32;17.70;99.90
12386;DHT22;6257;57.634;18.310;2023-06-22T02:47:59;17.70;99.90
12386;DHT22;6257;57.634;18.310;2023-06-22T02:50:26;17.70;99.90
12386;DHT22;6257;57.634;18.310;2023-06-22T02:52:55;17.70;99.90
12386;DHT22;6257;57.634;18.310;2023-06-22T02:55:22;17.70;99.90
12386;DHT22;6257;57.634;18.310;2023-06-22T02:57:49;17.70;99.90
12386;DHT22;6257;57.634;18.310;2023-06-22T03:00:19;17.70;99.90
12386;DHT22;6257;57.634;18.310;2023-06-22T03:02:47;17.70;99.90
12386;DHT22;6257;57.634;18.310;2023-06-22T03:05:15;17.60;99.90
12386;DHT22;6257;57.634;18.310;2023-06-22T03:07:44;17.70;99.90
12386;DHT22;6257;57.634;18.310;2023-06-22T03:10:14;17.70;99.90
12386;DHT22;6257;57.634;18.310;2023-06-22T03:12:42;17.70;99.90
12386;DHT22;6257;57.634;18.310;2023-06-22T03:15:11;17.70;99.90
12386;DHT22;6257;57.634;18.310;2023-06-22T03:17:39;17.70;99.90
12386;DHT22;6257;57.634;18.310;2023-06-22T03:20:07;17.70;99.90
12386;DHT22;6257;57.634;18.310;2023-06-22T03:22:36;17.60;99.90
12386;DHT22;6257;57.634;18.310;2023-06-22T03:25:04;17.70;99.90
12386;DHT22;6257;57.634;18.310;2023-06-22T03:27:37;17.70;99.90
12386;DHT22;6257;57.634;18.310;2023-06-22T03:30:05;17.60;99.90
12386;DHT22;6257;57.634;18.310;2023-06-22T03:32:32;17.60;99.90
12386;DHT22;6257;57.634;18.310;2023-06-22T03:34:59;17.70;99.90
12386;DHT22;6257;57.634;18.310;2023-06-22T03:37:27;17.70;99.90
12386;DHT22;6257;57.634;18.310;2023-06-22T03:39:54;17.80;99.90
12386;DHT22;6257;57.634;18.310;2023-06-22T03:42:21;17.80;99.90
12386;DHT22;6257;57.634;18.310;2023-06-22T03:44:49;17.80;99.90
12386;DHT22;6257;57.634;18.310;2023-06-22T03:47:17;17.80;99.90
12386;DHT22;6257;57.634;18.310;2023-06-22T03:49:44;17.80;99.90
12386;DHT22;6257;57.634;18.310;2023-06-22T03:52:11;17.80;99.90
12386;DHT22;6257;57.634;18.310;2023-06-22T03:54:38;17.80;99.90
12386;DHT22;6257;57.634;18.310;2023-06-22T03:57:05;17.80;99.90
12386;DHT22;6257;57.634;18.310;2023-06-22T03:59:32;17.80;99.90
12386;DHT22;6257;57.634;18.310;2023-06-22T04:02:01;17.80;99.90
12386;DHT22;6257;57.634;18.310;2023-06-22T04:04:28;17.80;99.90
12386;DHT22;6257;57.634;18.310;2023-06-22T04:06:55;17.80;99.90
12386;DHT22;6257;57.634;18.310;2023-06-22T04:09:23;17.80;99.90
12386;DHT22;6257;57.634;18.310;2023-06-22T04:11:50;17.80;99.90
12386;DHT22;6257;57.634;18.310;2023-06-22T04:14:17;17.90;99.90
12386;DHT22;6257;57.634;18.310;2023-06-22T04:16:44;18.00;99.90
12386;DHT22;6257;57.634;18.310;2023-06-22T04:19:13;18.00;99.90
12386;DHT22;6257;57.634;18.310;2023-06-22T04:21:42;18.00;99.90
12386;DHT22;6257;57.634;18.310;2023-06-22T04:24:10;18.00;99.90
12386;DHT22;6257;57.634;18.310;2023-06-22T04:26:37;18.00;99.90
12386;DHT22;6257;57.634;18.310;2023-06-22T04:29:04;18.00;99.90
12386;DHT22;6257;57.634;18.310;2023-06-22T04:31:31;18.00;99.90
12386;DHT22;6257;57.634;18.310;2023-06-22T04:34:03;18.00;99.90
12386;DHT22;6257;57.634;18.310;2023-06-22T04:36:35;18.10;99.90
12386;DHT22;6257;57.634;18.310;2023-06-22T04:39:07;18.10;99.90
12386;DHT22;6257;57.634;18.310;2023-06-22T04:41:35;18.20;99.90
12386;DHT22;6257;57.634;18.310;2023-06-22T04:44:11;18.30;99.90
12386;DHT22;6257;57.634;18.310;2023-06-22T04:46:39;18.40;99.90
12386;DHT22;6257;57.634;18.310;2023-06-22T04:49:06;18.40;99.90
12386;DHT22;6257;57.634;18.310;2023-06-22T04:51:42;18.40;99.90
12386;DHT22;6257;57.634;18.310;2023-06-22T04:54:09;18.40;99.90
12386;DHT22;6257;57.634;18.310;2023-06-22T04:56:36;18.50;99.90
12386;DHT22;6257;57.634;18.310;2023-06-22T04:59:06;18.40;99.90
12386;DHT22;6257;57.634;18.310;2023-06-22T05:01:34;18.50;99.90
12386;DHT22;6257;57.634;18.310;2023-06-22T05:04:01;18.50;99.90
12386;DHT22;6257;57.634;18.310;2023-06-22T05:06:29;18.40;99.90
12386;DHT22;6257;57.634;18.310;2023-06-22T05:08:57;18.20;99.90
12386;DHT22;6257;57.634;18.310;2023-06-22T05:11:25;18.20;99.90
12386;DHT22;6257;57.634;18.310;2023-06-22T05:13:52;18.10;99.90
12386;DHT22;6257;57.634;18.310;2023-06-22T05:16:20;18.20;99.90
12386;DHT22;6257;57.634;18.310;2023-06-22T05:18:50;18.20;99.90
12386;DHT22;6257;57.634;18.310;2023-06-22T05:21:18;18.20;99.90
12386;DHT22;6257;57.634;18.310;2023-06-22T05:23:45;18.20;99.90
12386;DHT22;6257;57.634;18.310;2023-06-22T05:28:41;18.30;99.90
12386;DHT22;6257;57.634;18.310;2023-06-22T05:31:12;18.30;99.90
12386;DHT22;6257;57.634;18.310;2023-06-22T05:33:40;18.20;99.90
12386;DHT22;6257;57.634;18.310;2023-06-22T05:36:07;18.30;99.90
12386;DHT22;6257;57.634;18.310;2023-06-22T05:38:35;18.30;99.90
12386;DHT22;6257;57.634;18.310;2023-06-22T05:41:02;18.40;99.90
12386;DHT22;6257;57.634;18.310;2023-06-22T05:43:31;18.40;99.90
12386;DHT22;6257;57.634;18.310;2023-06-22T05:45:59;18.40;99.90
12386;DHT22;6257;57.634;18.310;2023-06-22T05:48:26;18.40;99.90
12386;DHT22;6257;57.634;18.310;2023-06-22T05:50:53;18.40;99.90
12386;DHT22;6257;57.634;18.310;2023-06-22T05:53:20;18.40;99.90
12386;DHT22;6257;57.634;18.310;2023-06-22T05:55:47;18.40;99.90
12386;DHT22;6257;57.634;18.310;2023-06-22T05:58:15;18.40;99.90
12386;DHT22;6257;57.634;18.310;2023-06-22T06:00:43;18.40;99.90
12386;DHT22;6257;57.634;18.310;2023-06-22T06:03:10;18.30;99.90
12386;DHT22;6257;57.634;18.310;2023-06-22T06:05:37;18.30;99.90
12386;DHT22;6257;57.634;18.310;2023-06-22T06:08:06;18.30;99.90
12386;DHT22;6257;57.634;18.310;2023-06-22T06:10:34;18.50;99.90
12386;DHT22;6257;57.634;18.310;2023-06-22T06:13:02;18.50;99.90
12386;DHT22;6257;57.634;18.310;2023-06-22T06:15:30;18.50;99.90
12386;DHT22;6257;57.634;18.310;2023-06-22T06:20:26;18.30;99.90
12386;DHT22;6257;57.634;18.310;2023-06-22T06:22:54;18.40;99.90
12386;DHT22;6257;57.634;18.310;2023-06-22T06:25:21;18.30;99.90
12386;DHT22;6257;57.634;18.310;2023-06-22T06:27:50;18.30;99.90
12386;DHT22;6257;57.634;18.310;2023-06-22T06:30:20;18.20;99.90
12386;DHT22;6257;57.634;18.310;2023-06-22T06:32:47;18.20;99.90
12386;DHT22;6257;57.634;18.310;2023-06-22T06:37:45;18.30;99.90
12386;DHT22;6257;57.634;18.310;2023-06-22T06:40:14;18.40;99.90
12386;DHT22;6257;57.634;18.310;2023-06-22T06:42:42;18.50;99.90
12386;DHT22;6257;57.634;18.310;2023-06-22T06:45:11;18.60;99.90
12386;DHT22;6257;57.634;18.310;2023-06-22T06:47:38;18.70;99.90
12386;DHT22;6257;57.634;18.310;2023-06-22T06:50:06;18.70;99.90
12386;DHT22;6257;57.634;18.310;2023-06-22T06:52:35;18.90;99.90
12386;DHT22;6257;57.634;18.310;2023-06-22T06:55:03;18.90;99.90
12386;DHT22;6257;57.634;18.310;2023-06-22T06:57:33;19.00;99.90
12386;DHT22;6257;57.634;18.310;2023-06-22T07:00:01;19.10;99.90
12386;DHT22;6257;57.634;18.310;2023-06-22T07:02:32;18.00;99.90
12386;DHT22;6257;57.634;18.310;2023-06-22T07:05:01;19.30;99.90
12386;DHT22;6257;57.634;18.310;2023-06-22T07:07:29;19.30;99.90
12386;DHT22;6257;57.634;18.310;2023-06-22T07:12:25;19.40;99.90
12386;DHT22;6257;57.634;18.310;2023-06-22T07:14:53;19.50;99.90
12386;DHT22;6257;57.634;18.310;2023-06-22T07:17:20;19.60;99.90
12386;DHT22;6257;57.634;18.310;2023-06-22T07:19:47;19.50;99.90
12386;DHT22;6257;57.634;18.310;2023-06-22T07:22:20;19.60;99.90
12386;DHT22;6257;57.634;18.310;2023-06-22T07:24:47;19.70;99.90
12386;DHT22;6257;57.634;18.310;2023-06-22T07:27:16;19.80;99.90
12386;DHT22;6257;57.634;18.310;2023-06-22T07:29:44;20.10;99.90
12386;DHT22;6257;57.634;18.310;2023-06-22T07:32:11;20.00;99.90
12386;DHT22;6257;57.634;18.310;2023-06-22T07:34:38;20.00;99.90
12386;DHT22;6257;57.634;18.310;2023-06-22T07:37:05;20.10;99.90
12386;DHT22;6257;57.634;18.310;2023-06-22T07:39:33;20.20;99.90
12386;DHT22;6257;57.634;18.310;2023-06-22T07:42:00;20.40;99.90
12386;DHT22;6257;57.634;18.310;2023-06-22T07:44:28;20.30;99.90
12386;DHT22;6257;57.634;18.310;2023-06-22T07:46:55;20.60;99.90
12386;DHT22;6257;57.634;18.310;2023-06-22T07:49:22;20.80;99.90
12386;DHT22;6257;57.634;18.310;2023-06-22T07:51:49;21.00;99.90
12386;DHT22;6257;57.634;18.310;2023-06-22T07:54:16;21.10;99.90
12386;DHT22;6257;57.634;18.310;2023-06-22T07:56:43;21.30;99.90
12386;DHT22;6257;57.634;18.310;2023-06-22T07:59:10;21.30;99.90
12386;DHT22;6257;57.634;18.310;2023-06-22T08:01:39;21.50;99.90
12386;DHT22;6257;57.634;18.310;2023-06-22T08:04:06;21.80;99.90
12386;DHT22;6257;57.634;18.310;2023-06-22T08:06:33;21.70;99.90
12386;DHT22;6257;57.634;18.310;2023-06-22T08:09:00;22.00;99.90
12386;DHT22;6257;57.634;18.310;2023-06-22T08:11:27;22.00;99.90
12386;DHT22;6257;57.634;18.310;2023-06-22T08:13:54;22.10;99.90
12386;DHT22;6257;57.634;18.310;2023-06-22T08:16:21;21.90;99.90
12386;DHT22;6257;57.634;18.310;2023-06-22T08:18:50;22.10;99.90
12386;DHT22;6257;57.634;18.310;2023-06-22T08:21:17;22.20;99.90
12386;DHT22;6257;57.634;18.310;2023-06-22T08:23:44;22.00;99.90
12386;DHT22;6257;57.634;18.310;2023-06-22T08:26:11;21.80;99.90
12386;DHT22;6257;57.634;18.310;2023-06-22T08:28:38;21.60;99.90
12386;DHT22;6257;57.634;18.310;2023-06-22T08:31:05;21.50;99.90
12386;DHT22;6257;57.634;18.310;2023-06-22T08:33:32;21.60;99.90
12386;DHT22;6257;57.634;18.310;2023-06-22T08:36:00;21.60;99.90
12386;DHT22;6257;57.634;18.310;2023-06-22T08:38:27;21.50;99.90
12386;DHT22;6257;57.634;18.310;2023-06-22T08:40:54;21.50;99.90
12386;DHT22;6257;57.634;18.310;2023-06-22T08:43:21;21.40;99.90
12386;DHT22;6257;57.634;18.310;2023-06-22T08:45:48;21.30;99.90
12386;DHT22;6257;57.634;18.310;2023-06-22T08:48:15;21.20;99.90
12386;DHT22;6257;57.634;18.310;2023-06-22T08:50:42;21.30;99.90
12386;DHT22;6257;57.634;18.310;2023-06-22T08:55:38;21.40;99.90
12386;DHT22;6257;57.634;18.310;2023-06-22T08:58:05;21.30;99.90
12386;DHT22;6257;57.634;18.310;2023-06-22T09:00:32;21.40;99.90
12386;DHT22;6257;57.634;18.310;2023-06-22T09:03:00;21.40;99.90
12386;DHT22;6257;57.634;18.310;2023-06-22T09:05:28;21.30;99.90
12386;DHT22;6257;57.634;18.310;2023-06-22T09:07:56;21.10;99.90
12386;DHT22;6257;57.634;18.310;2023-06-22T09:10:25;20.90;99.90
12386;DHT22;6257;57.634;18.310;2023-06-22T09:12:52;21.10;99.90
12386;DHT22;6257;57.634;18.310;2023-06-22T09:15:20;21.00;99.90
12386;DHT22;6257;57.634;18.310;2023-06-22T09:17:47;21.00;99.90
12386;DHT22;6257;57.634;18.310;2023-06-22T09:20:14;21.20;99.90
12386;DHT22;6257;57.634;18.310;2023-06-22T09:22:42;21.30;99.90
12386;DHT22;6257;57.634;18.310;2023-06-22T09:25:09;21.20;99.90
12386;DHT22;6257;57.634;18.310;2023-06-22T09:27:38;20.90;99.90
12386;DHT22;6257;57.634;18.310;2023-06-22T09:30:06;20.80;99.90
12386;DHT22;6257;57.634;18.310;2023-06-22T09:32:33;20.70;99.90
12386;DHT22;6257;57.634;18.310;2023-06-22T09:35:03;20.50;99.90
12386;DHT22;6257;57.634;18.310;2023-06-22T09:37:32;20.50;99.90
12386;DHT22;6257;57.634;18.310;2023-06-22T09:39:59;20.50;99.90
12386;DHT22;6257;57.634;18.310;2023-06-22T09:42:26;20.40;99.90
12386;DHT22;6257;57.634;18.310;2023-06-22T09:44:54;20.40;99.90
12386;DHT22;6257;57.634;18.310;2023-06-22T09:47:21;20.70;99.90
12386;DHT22;6257;57.634;18.310;2023-06-22T09:49:49;21.00;99.90
12386;DHT22;6257;57.634;18.310;2023-06-22T09:52:16;21.30;99.90
12386;DHT22;6257;57.634;18.310;2023-06-22T09:54:43;21.40;99.90
12386;DHT22;6257;57.634;18.310;2023-06-22T09:57:10;21.40;99.90
12386;DHT22;6257;57.634;18.310;2023-06-22T09:59:37;21.40;99.90
12386;DHT22;6257;57.634;18.310;2023-06-22T10:02:07;19.50;99.90
12386;DHT22;6257;57.634;18.310;2023-06-22T10:04:35;21.20;99.90
12386;DHT22;6257;57.634;18.310;2023-06-22T10:07:02;21.10;99.90
12386;DHT22;6257;57.634;18.310;2023-06-22T10:09:29;21.00;99.90
12386;DHT22;6257;57.634;18.310;2023-06-22T10:11:56;21.10;99.90
12386;DHT22;6257;57.634;18.310;2023-06-22T10:14:23;21.10;99.90
12386;DHT22;6257;57.634;18.310;2023-06-22T10:16:52;21.00;99.90
12386;DHT22;6257;57.634;18.310;2023-06-22T10:19:21;21.00;99.90
12386;DHT22;6257;57.634;18.310;2023-06-22T10:21:48;20.90;99.90
12386;DHT22;6257;57.634;18.310;2023-06-22T10:24:15;21.00;99.90
12386;DHT22;6257;57.634;18.310;2023-06-22T10:26:42;21.20;99.90
12386;DHT22;6257;57.634;18.310;2023-06-22T10:29:08;21.30;99.90
12386;DHT22;6257;57.634;18.310;2023-06-22T10:31:36;21.20;99.90
12386;DHT22;6257;57.634;18.310;2023-06-22T10:34:03;20.50;99.90
12386;DHT22;6257;57.634;18.310;2023-06-22T10:36:31;21.20;99.90
12386;DHT22;6257;57.634;18.310;2023-06-22T10:38:58;21.30;99.90
12386;DHT22;6257;57.634;18.310;2023-06-22T10:41:27;21.30;99.90
12386;DHT22;6257;57.634;18.310;2023-06-22T10:43:55;21.20;99.90
12386;DHT22;6257;57.634;18.310;2023-06-22T10:46:24;21.00;99.90
12386;DHT22;6257;57.634;18.310;2023-06-22T10:48:51;20.90;99.90
12386;DHT22;6257;57.634;18.310;2023-06-22T10:51:20;20.90;99.90
12386;DHT22;6257;57.634;18.310;2023-06-22T10:53:48;21.10;99.90
12386;DHT22;6257;57.634;18.310;2023-06-22T10:56:17;21.20;99.90
12386;DHT22;6257;57.634;18.310;2023-06-22T10:58:45;21.40;99.90
12386;DHT22;6257;57.634;18.310;2023-06-22T11:01:12;21.60;99.90
12386;DHT22;6257;57.634;18.310;2023-06-22T11:03:39;21.70;99.90
12386;DHT22;6257;57.634;18.310;2023-06-22T11:06:06;21.80;99.90
12386;DHT22;6257;57.634;18.310;2023-06-22T11:08:33;21.70;99.90
12386;DHT22;6257;57.634;18.310;2023-06-22T11:11:02;21.50;99.90
12386;DHT22;6257;57.634;18.310;2023-06-22T11:13:29;21.60;99.90
12386;DHT22;6257;57.634;18.310;2023-06-22T11:15:56;21.50;99.90
12386;DHT22;6257;57.634;18.310;2023-06-22T11:18:23;21.70;99.90
12386;DHT22;6257;57.634;18.310;2023-06-22T11:20:50;21.90;99.90
12386;DHT22;6257;57.634;18.310;2023-06-22T11:23:17;21.80;99.90
12386;DHT22;6257;57.634;18.310;2023-06-22T11:25:44;21.60;99.90
12386;DHT22;6257;57.634;18.310;2023-06-22T11:28:13;21.50;99.90
12386;DHT22;6257;57.634;18.310;2023-06-22T11:30:40;21.70;99.90
12386;DHT22;6257;57.634;18.310;2023-06-22T11:33:07;21.80;99.90
12386;DHT22;6257;57.634;18.310;2023-06-22T11:35:34;21.90;99.90
12386;DHT22;6257;57.634;18.310;2023-06-22T11:38:01;21.90;99.90
12386;DHT22;6257;57.634;18.310;2023-06-22T11:40:29;21.90;99.90
12386;DHT22;6257;57.634;18.310;2023-06-22T11:42:56;22.00;99.90
12386;DHT22;6257;57.634;18.310;2023-06-22T11:45:24;22.10;99.90
12386;DHT22;6257;57.634;18.310;2023-06-22T11:47:51;22.10;99.90
12386;DHT22;6257;57.634;18.310;2023-06-22T11:50:18;22.10;99.90
12386;DHT22;6257;57.634;18.310;2023-06-22T11:52:45;22.20;99.90
12386;DHT22;6257;57.634;18.310;2023-06-22T11:55:13;22.20;99.90
12386;DHT22;6257;57.634;18.310;2023-06-22T11:57:55;22.20;99.90
12386;DHT22;6257;57.634;18.310;2023-06-22T12:00:26;22.10;99.90
12386;DHT22;6257;57.634;18.310;2023-06-22T12:02:53;22.00;99.90
12386;DHT22;6257;57.634;18.310;2023-06-22T12:05:22;22.10;99.90
12386;DHT22;6257;57.634;18.310;2023-06-22T12:07:49;22.10;99.90
12386;DHT22;6257;57.634;18.310;2023-06-22T12:10:18;22.20;99.90
12386;DHT22;6257;57.634;18.310;2023-06-22T12:12:45;22.10;99.90
12386;DHT22;6257;57.634;18.310;2023-06-22T12:15:12;22.10;99.90
12386;DHT22;6257;57.634;18.310;2023-06-22T12:17:40;22.20;99.90
12386;DHT22;6257;57.634;18.310;2023-06-22T12:20:08;22.20;99.90
12386;DHT22;6257;57.634;18.310;2023-06-22T12:22:36;22.20;99.90
12386;DHT22;6257;57.634;18.310;2023-06-22T12:25:04;22.20;99.90
12386;DHT22;6257;57.634;18.310;2023-06-22T12:27:32;22.20;99.90
12386;DHT22;6257;57.634;18.310;2023-06-22T12:29:59;22.30;99.90
12386;DHT22;6257;57.634;18.310;2023-06-22T12:32:26;22.20;99.90
12386;DHT22;6257;57.634;18.310;2023-06-22T12:34:54;22.30;99.90
12386;DHT22;6257;57.634;18.310;2023-06-22T12:37:21;22.20;99.90
12386;DHT22;6257;57.634;18.310;2023-06-22T12:39:48;22.20;99.90
12386;DHT22;6257;57.634;18.310;2023-06-22T12:42:16;22.30;99.90
12386;DHT22;6257;57.634;18.310;2023-06-22T12:44:43;22.40;99.90
12386;DHT22;6257;57.634;18.310;2023-06-22T12:47:10;22.50;99.90
12386;DHT22;6257;57.634;18.310;2023-06-22T12:49:38;22.50;99.90
12386;DHT22;6257;57.634;18.310;2023-06-22T12:52:10;22.50;99.90
12386;DHT22;6257;57.634;18.310;2023-06-22T12:54:37;22.50;99.90
12386;DHT22;6257;57.634;18.310;2023-06-22T12:57:05;22.50;99.90
12386;DHT22;6257;57.634;18.310;2023-06-22T12:59:32;22.50;99.90
12386;DHT22;6257;57.634;18.310;2023-06-22T13:01:59;22.60;99.90
12386;DHT22;6257;57.634;18.310;2023-06-22T13:04:26;22.70;99.90
12386;DHT22;6257;57.634;18.310;2023-06-22T13:06:53;22.70;99.90
12386;DHT22;6257;57.634;18.310;2023-06-22T13:09:22;22.80;99.90
12386;DHT22;6257;57.634;18.310;2023-06-22T13:11:49;22.90;99.90
12386;DHT22;6257;57.634;18.310;2023-06-22T13:14:16;22.90;99.90
12386;DHT22;6257;57.634;18.310;2023-06-22T13:16:43;23.00;99.90
12386;DHT22;6257;57.634;18.310;2023-06-22T13:19:10;23.00;99.90
12386;DHT22;6257;57.634;18.310;2023-06-22T13:21:37;23.10;99.90
12386;DHT22;6257;57.634;18.310;2023-06-22T13:24:07;23.00;99.90
12386;DHT22;6257;57.634;18.310;2023-06-22T13:26:36;23.00;99.90
12386;DHT22;6257;57.634;18.310;2023-06-22T13:29:03;23.00;99.90
12386;DHT22;6257;57.634;18.310;2023-06-22T13:31:30;23.00;99.90
12386;DHT22;6257;57.634;18.310;2023-06-22T13:33:57;23.10;99.90
12386;DHT22;6257;57.634;18.310;2023-06-22T13:36:24;23.20;99.90
12386;DHT22;6257;57.634;18.310;2023-06-22T13:38:51;23.30;99.90
12386;DHT22;6257;57.634;18.310;2023-06-22T13:41:18;23.30;99.90
12386;DHT22;6257;57.634;18.310;2023-06-22T13:43:46;23.30;99.90
12386;DHT22;6257;57.634;18.310;2023-06-22T13:46:13;23.30;99.90
12386;DHT22;6257;57.634;18.310;2023-06-22T13:48:40;23.40;99.90
12386;DHT22;6257;57.634;18.310;2023-06-22T13:51:07;23.50;99.90
12386;DHT22;6257;57.634;18.310;2023-06-22T13:53:34;24.80;99.90
12386;DHT22;6257;57.634;18.310;2023-06-22T13:56:01;23.60;99.90
12386;DHT22;6257;57.634;18.310;2023-06-22T13:58:28;23.70;99.90
12386;DHT22;6257;57.634;18.310;2023-06-22T14:03:26;23.70;99.90
12386;DHT22;6257;57.634;18.310;2023-06-22T14:05:53;23.70;99.90
12386;DHT22;6257;57.634;18.310;2023-06-22T14:08:22;23.70;99.90
12386;DHT22;6257;57.634;18.310;2023-06-22T14:10:50;23.70;99.90
12386;DHT22;6257;57.634;18.310;2023-06-22T14:13:19;23.70;99.90
12386;DHT22;6257;57.634;18.310;2023-06-22T14:15:46;23.70;99.90
12386;DHT22;6257;57.634;18.310;2023-06-22T14:18:15;23.70;99.90
12386;DHT22;6257;57.634;18.310;2023-06-22T14:20:42;23.70;99.90
12386;DHT22;6257;57.634;18.310;2023-06-22T14:23:09;23.70;99.90
12386;DHT22;6257;57.634;18.310;2023-06-22T14:25:36;23.70;99.90
12386;DHT22;6257;57.634;18.310;2023-06-22T14:28:04;23.80;99.90
12386;DHT22;6257;57.634;18.310;2023-06-22T14:30:31;23.80;99.90
12386;DHT22;6257;57.634;18.310;2023-06-22T14:32:58;23.80;99.90
12386;DHT22;6257;57.634;18.310;2023-06-22T14:37:53;23.80;99.90
12386;DHT22;6257;57.634;18.310;2023-06-22T14:40:20;23.80;99.90
12386;DHT22;6257;57.634;18.310;2023-06-22T14:42:47;23.90;99.90
12386;DHT22;6257;57.634;18.310;2023-06-22T14:45:14;23.90;99.90
12386;DHT22;6257;57.634;18.310;2023-06-22T14:47:41;24.00;99.90
12386;DHT22;6257;57.634;18.310;2023-06-22T14:50:09;23.90;99.90
12386;DHT22;6257;57.634;18.310;2023-06-22T14:52:37;23.80;99.90
12386;DHT22;6257;57.634;18.310;2023-06-22T14:55:05;23.80;99.90
12386;DHT22;6257;57.634;18.310;2023-06-22T14:57:33;23.80;99.90
12386;DHT22;6257;57.634;18.310;2023-06-22T15:00:00;23.80;99.90
12386;DHT22;6257;57.634;18.310;2023-06-22T15:02:28;23.80;99.90
12386;DHT22;6257;57.634;18.310;2023-06-22T15:04:55;23.80;99.90
12386;DHT22;6257;57.634;18.310;2023-06-22T15:07:22;23.80;99.90
12386;DHT22;6257;57.634;18.310;2023-06-22T15:09:51;23.80;99.90
12386;DHT22;6257;57.634;18.310;2023-06-22T15:12:18;23.80;99.90
12386;DHT22;6257;57.634;18.310;2023-06-22T15:14:45;23.90;99.90
12386;DHT22;6257;57.634;18.310;2023-06-22T15:17:12;23.90;99.90
12386;DHT22;6257;57.634;18.310;2023-06-22T15:19:41;24.00;99.90
12386;DHT22;6257;57.634;18.310;2023-06-22T15:22:08;24.00;99.90
12386;DHT22;6257;57.634;18.310;2023-06-22T15:24:35;24.90;99.90
12386;DHT22;6257;57.634;18.310;2023-06-22T15:27:06;24.00;99.90
12386;DHT22;6257;57.634;18.310;2023-06-22T15:29:36;24.00;99.90
12386;DHT22;6257;57.634;18.310;2023-06-22T15:32:04;23.90;99.90
12386;DHT22;6257;57.634;18.310;2023-06-22T15:34:31;23.80;99.90
12386;DHT22;6257;57.634;18.310;2023-06-22T15:36:59;23.80;99.90
12386;DHT22;6257;57.634;18.310;2023-06-22T15:39:26;23.80;99.90
12386;DHT22;6257;57.634;18.310;2023-06-22T15:41:53;23.70;99.90
12386;DHT22;6257;57.634;18.310;2023-06-22T15:44:23;23.80;99.90
12386;DHT22;6257;57.634;18.310;2023-06-22T15:46:50;23.80;99.90
12386;DHT22;6257;57.634;18.310;2023-06-22T15:49:17;23.90;99.90
12386;DHT22;6257;57.634;18.310;2023-06-22T15:51:45;24.00;99.90
12386;DHT22;6257;57.634;18.310;2023-06-22T15:54:12;23.90;99.90
12386;DHT22;6257;57.634;18.310;2023-06-22T15:56:39;23.90;99.90
12386;DHT22;6257;57.634;18.310;2023-06-22T15:59:06;23.80;99.90